Echola, Alabama
Current Conditions -  °F | °C
As of 10:53 PM on Wednesday 22 Oct 2014 (Local Time) from KTCL Reporting Station
Clear Clear  
Wind Chill: 51°   Ceiling: Unl
Heat Index: 51°   Visibility: 10mi
Dew Point: 44°   Wind: 3mph
Humidity: 77%   Direction: 20°NNE
Pressure: 30.16"   Gusts: NA
Location:  33.34°N, 87.79°W
Report Text: KTCL 230353Z 02003KT 10SM CLR 11/07 A3016 RMK AO2 SLP211 T01060067
Loading
Personal Weather Stations






























Interactive Weather Map New forecast layout! Learn more

10-Day Weather Forecast

Advertisements
Track Severe Weather on mobile